createdAt,value
2019-01-05T00:00:08.799Z,0
2019-01-05T00:01:07.847Z,0
2019-01-05T00:02:06.584Z,0
2019-01-05T00:03:05.254Z,0
2019-01-05T00:04:03.795Z,0
2019-01-05T00:05:02.285Z,0
2019-01-05T00:06:00.802Z,0
2019-01-05T00:06:59.335Z,0
2019-01-05T00:07:57.887Z,0
2019-01-05T00:08:56.465Z,0
2019-01-05T00:09:55.887Z,0
2019-01-05T00:10:54.415Z,0
2019-01-05T00:11:52.944Z,0
2019-01-05T00:12:51.519Z,0
2019-01-05T00:13:50.051Z,0
2019-01-05T00:14:48.583Z,0
2019-01-05T00:15:47.225Z,0
2019-01-05T00:16:45.793Z,0
2019-01-05T00:17:44.467Z,0
2019-01-05T00:18:43.117Z,0
2019-01-05T00:19:41.667Z,0
2019-01-05T00:20:40.193Z,0
2019-01-05T00:21:39.208Z,0
2019-01-05T00:22:37.776Z,0
2019-01-05T00:23:36.429Z,0
2019-01-05T00:24:35.126Z,0
2019-01-05T00:25:33.691Z,0
2019-01-05T00:26:32.367Z,0
2019-01-05T00:27:31.096Z,0
2019-01-05T00:28:29.619Z,0
2019-01-05T00:29:28.182Z,0
2019-01-05T00:30:26.819Z,0
2019-01-05T00:31:25.540Z,0
2019-01-05T00:32:24.086Z,0
2019-01-05T00:33:22.994Z,0
2019-01-05T00:34:21.572Z,0
2019-01-05T00:35:20.164Z,0
2019-01-05T00:36:18.762Z,0
2019-01-05T00:37:17.321Z,0
2019-01-05T00:38:15.822Z,0
2019-01-05T00:39:14.390Z,0
2019-01-05T00:40:16.996Z,0
2019-01-05T00:41:11.434Z,0
2019-01-05T00:42:09.965Z,0
2019-01-05T00:43:08.564Z,0
2019-01-05T00:44:07.238Z,0
2019-01-05T00:45:05.834Z,0
2019-01-05T00:46:04.536Z,0
2019-01-05T00:47:03.190Z,0
2019-01-05T00:48:01.720Z,0
2019-01-05T00:49:00.402Z,0
2019-01-05T00:49:58.973Z,0
2019-01-05T00:50:57.521Z,0
2019-01-05T00:51:56.019Z,0
2019-01-05T00:52:54.567Z,0
2019-01-05T00:53:53.208Z,0
2019-01-05T00:54:51.757Z,0
2019-01-05T00:55:50.261Z,0
2019-01-05T00:56:49.123Z,0
2019-01-05T00:57:47.660Z,0
2019-01-05T00:58:46.271Z,0
2019-01-05T00:59:45.078Z,0
2019-01-05T01:00:43.864Z,0
2019-01-05T01:01:42.399Z,0
2019-01-05T01:02:41.184Z,0
2019-01-05T01:03:39.744Z,0
2019-01-05T01:04:38.381Z,0
2019-01-05T01:05:37.289Z,0
2019-01-05T01:06:35.799Z,0
2019-01-05T01:07:34.342Z,0
2019-01-05T01:08:32.905Z,0
2019-01-05T01:09:31.429Z,0
2019-01-05T01:10:29.996Z,0
2019-01-05T01:11:28.985Z,0
2019-01-05T01:12:27.613Z,0
2019-01-05T01:13:26.191Z,0
2019-01-05T01:14:25.017Z,0
2019-01-05T01:15:23.601Z,0
2019-01-05T01:16:22.158Z,0
2019-01-05T01:17:21.025Z,0
2019-01-05T01:18:19.580Z,0
2019-01-05T01:19:18.122Z,0
2019-01-05T01:20:16.866Z,0
2019-01-05T01:21:15.389Z,0
2019-01-05T01:22:13.945Z,0
2019-01-05T01:23:12.495Z,0
2019-01-05T01:24:11.155Z,0
2019-01-05T01:25:09.830Z,0
2019-01-05T01:26:08.582Z,0
2019-01-05T01:27:07.170Z,0
2019-01-05T01:28:05.703Z,0
2019-01-05T01:29:04.265Z,0
2019-01-05T01:30:03.093Z,0
2019-01-05T01:31:02.400Z,0
2019-01-05T01:34:45.411Z,0
2019-01-05T01:35:43.925Z,0
2019-01-05T01:36:42.651Z,0
2019-01-05T01:37:41.339Z,0
2019-01-05T01:38:40.076Z,0
2019-01-05T01:39:38.618Z,0
2019-01-05T01:40:37.153Z,0
2019-01-05T01:41:35.689Z,0
2019-01-05T01:42:34.220Z,0
2019-01-05T01:43:32.835Z,0
2019-01-05T01:44:31.471Z,0
2019-01-05T01:45:30.008Z,0
2019-01-05T01:46:28.834Z,0
2019-01-05T01:47:27.448Z,0
2019-01-05T01:48:25.975Z,0
2019-01-05T01:49:24.661Z,0
2019-01-05T01:50:23.206Z,0
2019-01-05T01:51:21.753Z,0
2019-01-05T01:52:20.309Z,0
2019-01-05T01:53:18.850Z,0
2019-01-05T01:54:17.361Z,0
2019-01-05T01:55:15.882Z,0
2019-01-05T01:56:14.572Z,0
2019-01-05T01:57:13.383Z,0
2019-01-05T01:58:11.949Z,0
2019-01-05T01:59:10.817Z,0
2019-01-05T02:00:09.349Z,0
2019-01-05T02:01:07.880Z,0
2019-01-05T02:02:06.480Z,0
2019-01-05T02:03:05.926Z,0
2019-01-05T02:04:03.599Z,0
2019-01-05T02:05:02.153Z,0
2019-01-05T02:06:00.845Z,0
2019-01-05T02:06:59.438Z,0
2019-01-05T02:07:57.953Z,0
2019-01-05T02:08:56.682Z,0
2019-01-05T02:09:55.374Z,0
2019-01-05T02:10:53.901Z,0
2019-01-05T02:11:52.757Z,0
2019-01-05T02:12:51.368Z,0
2019-01-05T02:13:49.876Z,0
2019-01-05T02:14:48.751Z,0
2019-01-05T02:15:47.442Z,0
2019-01-05T02:16:45.977Z,0
2019-01-05T02:17:44.676Z,0
2019-01-05T02:18:43.180Z,0
2019-01-05T02:19:41.745Z,0
2019-01-05T02:20:40.286Z,0
2019-01-05T02:21:38.825Z,0
2019-01-05T02:22:37.472Z,0
2019-01-05T02:23:36.040Z,0
2019-01-05T02:24:34.680Z,0
2019-01-05T02:25:33.322Z,0
2019-01-05T02:26:31.841Z,0
2019-01-05T02:27:30.500Z,0
2019-01-05T02:28:29.139Z,0
2019-01-05T02:29:27.654Z,0
2019-01-05T02:30:26.353Z,0
2019-01-05T02:31:24.891Z,0
2019-01-05T02:32:23.439Z,0
2019-01-05T02:33:21.990Z,0
2019-01-05T02:34:20.582Z,0
2019-01-05T02:35:19.353Z,0
2019-01-05T02:36:17.913Z,0
2019-01-05T02:37:16.619Z,0
2019-01-05T02:38:15.316Z,0
2019-01-05T02:39:13.857Z,0
2019-01-05T02:40:12.515Z,0
2019-01-05T02:41:11.182Z,0
2019-01-05T02:42:09.745Z,0
2019-01-05T02:43:08.374Z,0
2019-01-05T02:44:07.151Z,0
2019-01-05T02:45:05.703Z,0
2019-01-05T02:46:04.301Z,0
2019-01-05T02:47:03.103Z,0
2019-01-05T02:48:01.637Z,0
2019-01-05T02:49:00.187Z,0
2019-01-05T02:49:58.748Z,0
2019-01-05T02:50:57.320Z,0
2019-01-05T02:51:55.862Z,0
2019-01-05T02:52:54.414Z,0
2019-01-05T02:53:53.237Z,0
2019-01-05T02:54:51.895Z,0
2019-01-05T02:55:50.558Z,0
2019-01-05T02:56:49.246Z,0
2019-01-05T02:57:47.770Z,0
2019-01-05T02:58:46.295Z,0
2019-01-05T02:59:44.850Z,0
2019-01-05T03:00:43.395Z,0
2019-01-05T03:01:41.932Z,0
2019-01-05T03:02:40.482Z,0
2019-01-05T03:03:39.006Z,0
2019-01-05T03:04:37.532Z,0
2019-01-05T03:05:36.124Z,0
2019-01-05T03:06:35.094Z,0
2019-01-05T03:07:33.672Z,0
2019-01-05T03:08:32.236Z,0
2019-01-05T03:09:30.994Z,0
2019-01-05T03:10:29.546Z,0
2019-01-05T03:11:28.108Z,0
2019-01-05T03:12:26.659Z,0
2019-01-05T03:13:25.232Z,0
2019-01-05T03:14:23.740Z,0
2019-01-05T03:15:22.324Z,0
2019-01-05T03:16:21.176Z,0
2019-01-05T03:17:19.727Z,0
2019-01-05T03:18:18.429Z,0
2019-01-05T03:19:17.154Z,0
2019-01-05T03:20:15.706Z,0
2019-01-05T03:21:14.227Z,0
2019-01-05T03:22:12.754Z,0
2019-01-05T03:23:11.294Z,0
2019-01-05T03:24:09.840Z,0
2019-01-05T03:25:08.388Z,0
2019-01-05T03:26:07.006Z,0
2019-01-05T03:27:05.524Z,0
2019-01-05T03:28:04.062Z,0
2019-01-05T03:29:02.968Z,0
2019-01-05T03:30:01.509Z,0
2019-01-05T03:31:00.128Z,0
2019-01-05T03:31:58.860Z,0
2019-01-05T03:32:57.402Z,0
2019-01-05T03:33:55.933Z,0
2019-01-05T03:34:54.466Z,0
2019-01-05T03:35:53.004Z,0
2019-01-05T03:36:51.570Z,0
2019-01-05T03:37:50.119Z,0
2019-01-05T03:38:49.062Z,0
2019-01-05T03:39:47.605Z,0
2019-01-05T03:40:46.146Z,0
2019-01-05T03:41:45.019Z,0
2019-01-05T03:42:43.548Z,0
2019-01-05T03:43:42.064Z,0
2019-01-05T03:44:40.645Z,0
2019-01-05T03:45:39.227Z,0
2019-01-05T03:46:37.759Z,0
2019-01-05T03:47:36.322Z,0
2019-01-05T03:48:35.186Z,0
2019-01-05T03:49:33.792Z,0
2019-01-05T03:50:32.348Z,0
2019-01-05T03:51:31.209Z,0
2019-01-05T03:52:29.737Z,0
2019-01-05T03:53:28.279Z,0
2019-01-05T03:54:26.843Z,0
2019-01-05T03:55:26.018Z,0
2019-01-05T03:56:24.748Z,0
2019-01-05T03:57:23.266Z,0
2019-01-05T03:58:21.835Z,0
2019-01-05T03:59:20.369Z,0
2019-01-05T04:00:18.917Z,0
2019-01-05T04:01:18.418Z,0
2019-01-05T04:02:16.947Z,0
2019-01-05T04:03:15.473Z,0
2019-01-05T04:04:13.995Z,0
2019-01-05T04:05:12.603Z,0
2019-01-05T04:06:11.280Z,0
2019-01-05T04:07:09.821Z,0
2019-01-05T04:08:08.572Z,0
2019-01-05T04:10:49.146Z,0
2019-01-05T04:11:47.614Z,0
2019-01-05T04:12:46.138Z,0
2019-01-05T04:13:45.085Z,0
2019-01-05T04:14:43.635Z,0
2019-01-05T04:15:42.293Z,0
2019-01-05T04:16:40.974Z,0
2019-01-05T04:17:39.514Z,0
2019-01-05T04:18:38.034Z,0
2019-01-05T04:19:36.596Z,0
2019-01-05T04:20:35.122Z,0
2019-01-05T04:21:33.647Z,0
2019-01-05T04:22:32.196Z,0
2019-01-05T04:23:31.045Z,0
2019-01-05T04:24:29.629Z,0
2019-01-05T04:25:28.306Z,0
2019-01-05T04:26:27.047Z,0
2019-01-05T04:27:25.604Z,0
2019-01-05T04:28:24.117Z,0
2019-01-05T04:29:22.694Z,0
2019-01-05T04:30:21.255Z,0
2019-01-05T04:31:19.801Z,0
2019-01-05T04:32:18.351Z,0
2019-01-05T04:33:16.979Z,0
2019-01-05T04:34:15.594Z,0
2019-01-05T04:35:14.067Z,0
2019-01-05T04:36:12.697Z,0
2019-01-05T04:37:11.329Z,0
2019-01-05T04:38:09.903Z,0
2019-01-05T04:39:08.607Z,0
2019-01-05T04:40:07.272Z,0
2019-01-05T04:41:05.962Z,0
2019-01-05T04:42:04.470Z,0
2019-01-05T04:43:03.039Z,0
2019-01-05T04:44:01.537Z,0
2019-01-05T04:45:00.192Z,0
2019-01-05T04:45:59.120Z,0
2019-01-05T04:46:57.656Z,0
2019-01-05T04:47:56.238Z,0
2019-01-05T04:48:54.925Z,0
2019-01-05T04:49:53.485Z,0
2019-01-05T04:50:52.046Z,0
2019-01-05T04:51:50.615Z,0
2019-01-05T04:52:49.407Z,0
2019-01-05T04:53:47.959Z,0
2019-01-05T04:54:46.676Z,0
2019-01-05T04:55:45.355Z,0
2019-01-05T04:56:43.875Z,0
2019-01-05T04:57:42.631Z,0
2019-01-05T04:58:41.176Z,0
2019-01-05T04:59:39.718Z,0
2019-01-05T05:00:38.293Z,0
2019-01-05T05:01:36.820Z,0
2019-01-05T05:02:35.337Z,0
2019-01-05T05:03:33.860Z,0
2019-01-05T05:04:32.398Z,0
2019-01-05T05:05:31.276Z,0
2019-01-05T05:06:29.811Z,0
2019-01-05T05:07:28.938Z,0
2019-01-05T05:08:27.631Z,0
2019-01-05T05:09:26.169Z,0
2019-01-05T05:10:25.076Z,0
2019-01-05T05:11:23.634Z,0
2019-01-05T05:12:22.250Z,0
2019-01-05T05:13:20.874Z,0
2019-01-05T05:14:19.453Z,0
2019-01-05T05:15:17.973Z,0
2019-01-05T05:16:16.486Z,0
2019-01-05T05:17:14.998Z,0
2019-01-05T05:18:13.552Z,0
2019-01-05T05:19:12.104Z,0
2019-01-05T05:20:10.625Z,0
2019-01-05T05:21:09.195Z,0
2019-01-05T05:22:07.745Z,0
2019-01-05T05:23:06.312Z,0
2019-01-05T05:24:05.092Z,0
2019-01-05T05:25:03.660Z,0
2019-01-05T05:26:02.304Z,0
2019-01-05T05:27:01.314Z,0
2019-01-05T05:29:41.299Z,0
2019-01-05T05:30:39.856Z,0
2019-01-05T05:31:38.446Z,0
2019-01-05T05:32:37.156Z,0
2019-01-05T05:33:35.720Z,0
2019-01-05T05:34:34.364Z,0
2019-01-05T05:35:33.218Z,0
2019-01-05T05:36:31.738Z,0
2019-01-05T05:37:30.294Z,0
2019-01-05T05:41:19.730Z,0
2019-01-05T05:42:18.259Z,0
2019-01-05T05:43:17.057Z,0
2019-01-05T05:44:15.611Z,0
2019-01-05T05:45:14.072Z,0
2019-01-05T05:46:12.919Z,0
2019-01-05T05:47:11.505Z,0
2019-01-05T05:48:10.048Z,0
2019-01-05T05:49:08.606Z,0
2019-01-05T05:50:07.320Z,0
2019-01-05T05:51:05.868Z,0
2019-01-05T05:52:04.622Z,0
2019-01-05T05:53:03.948Z,0
2019-01-05T05:54:02.702Z,0
2019-01-05T05:55:01.505Z,0
2019-01-05T05:56:00.064Z,0
2019-01-05T05:56:58.617Z,0
2019-01-05T05:57:57.163Z,0
2019-01-05T05:58:55.691Z,0
2019-01-05T05:59:54.373Z,0
2019-01-05T06:00:53.189Z,0
2019-01-05T06:01:51.735Z,0
2019-01-05T06:02:50.400Z,0
2019-01-05T06:03:49.279Z,0
2019-01-05T06:04:47.823Z,0
2019-01-05T06:05:46.365Z,0
2019-01-05T06:06:45.225Z,0
2019-01-05T06:07:43.773Z,0
2019-01-05T06:08:42.463Z,0
2019-01-05T06:09:41.208Z,0
2019-01-05T06:10:39.786Z,0
2019-01-05T06:11:38.366Z,0
2019-01-05T06:12:36.901Z,0
2019-01-05T06:13:35.443Z,0
2019-01-05T06:14:34.004Z,0
2019-01-05T06:15:32.566Z,0
2019-01-05T06:16:31.362Z,0
2019-01-05T06:17:30.763Z,0
2019-01-05T06:18:29.433Z,0
2019-01-05T06:19:28.009Z,0
2019-01-05T06:20:26.771Z,0
2019-01-05T06:21:25.388Z,0
2019-01-05T06:22:23.906Z,0
2019-01-05T06:23:22.532Z,0
2019-01-05T06:24:21.081Z,0
2019-01-05T06:27:59.900Z,0
2019-01-05T06:28:58.604Z,0
2019-01-05T06:29:57.448Z,0
2019-01-05T06:30:55.977Z,0
2019-01-05T06:31:54.589Z,0
2019-01-05T06:32:53.211Z,0
2019-01-05T06:33:52.068Z,0
2019-01-05T06:34:50.801Z,0
2019-01-05T06:35:49.359Z,0
2019-01-05T06:36:47.870Z,0
2019-01-05T06:37:46.543Z,0
2019-01-05T06:38:45.183Z,0
2019-01-05T06:39:43.836Z,0
2019-01-05T06:40:42.340Z,0
2019-01-05T06:41:41.189Z,0
2019-01-05T06:42:40.309Z,0
2019-01-05T06:43:39.030Z,0
2019-01-05T06:44:37.717Z,0
2019-01-05T06:45:36.426Z,0
2019-01-05T06:46:35.229Z,0
2019-01-05T06:47:33.786Z,0
2019-01-05T06:48:32.272Z,0
2019-01-05T06:49:30.830Z,0
2019-01-05T06:50:29.385Z,0
2019-01-05T06:51:27.984Z,0
2019-01-05T06:52:27.379Z,0
2019-01-05T06:53:25.395Z,0
2019-01-05T06:56:02.932Z,0
2019-01-05T06:57:01.521Z,0
2019-01-05T06:58:00.053Z,0
2019-01-05T06:59:00.015Z,0
2019-01-05T06:59:59.002Z,0
2019-01-05T07:00:57.584Z,4
2019-01-05T07:01:56.163Z,4
2019-01-05T07:02:55.135Z,4
2019-01-05T07:03:53.707Z,0
2019-01-05T07:04:52.394Z,4
2019-01-05T07:05:51.013Z,4
2019-01-05T07:06:49.600Z,4
2019-01-05T07:07:48.128Z,4
2019-01-05T07:08:46.683Z,4
2019-01-05T07:09:45.365Z,4
2019-01-05T07:10:43.950Z,8
2019-01-05T07:11:42.811Z,4
2019-01-05T07:12:41.438Z,4
2019-01-05T07:13:40.005Z,4
2019-01-05T07:14:38.587Z,8
2019-01-05T07:17:19.126Z,8
2019-01-05T07:20:57.931Z,20
2019-01-05T07:21:56.574Z,16
2019-01-05T07:22:55.208Z,16
2019-01-05T07:23:53.739Z,20
2019-01-05T07:24:52.244Z,24
2019-01-05T07:25:51.387Z,28
2019-01-05T07:26:49.699Z,28
2019-01-05T07:27:48.286Z,28
2019-01-05T07:28:47.149Z,28
2019-01-05T07:29:45.689Z,36
2019-01-05T07:30:44.272Z,32
2019-01-05T07:31:42.830Z,36
2019-01-05T07:32:41.469Z,40
2019-01-05T07:33:40.034Z,44
2019-01-05T07:34:38.878Z,48
2019-01-05T07:35:37.526Z,56
2019-01-05T07:36:36.310Z,60
2019-01-05T07:37:34.850Z,60
2019-01-05T07:38:33.372Z,64
2019-01-05T07:39:31.907Z,60
2019-01-05T07:40:30.426Z,56
2019-01-05T07:41:28.973Z,64
2019-01-05T07:42:27.505Z,72
2019-01-05T07:43:26.133Z,80
2019-01-05T07:46:18.479Z,88
2019-01-05T07:47:17.031Z,84
2019-01-05T07:48:15.607Z,80
2019-01-05T07:49:14.630Z,88
2019-01-05T07:50:12.698Z,76
2019-01-05T07:51:11.542Z,80
2019-01-05T07:54:50.534Z,100
2019-01-05T07:55:49.056Z,104
2019-01-05T07:58:11.830Z,116
2019-01-05T07:59:10.440Z,132
2019-01-05T08:00:09.231Z,160
2019-01-05T08:02:25.036Z,180
2019-01-05T08:03:23.658Z,164
2019-01-05T08:04:22.199Z,152
2019-01-05T08:05:20.968Z,140
2019-01-05T08:06:19.616Z,140
2019-01-05T08:07:18.230Z,148
2019-01-05T08:08:17.015Z,168
2019-01-05T08:09:15.637Z,172
2019-01-05T08:10:14.185Z,212
2019-01-05T08:11:12.880Z,220
2019-01-05T08:12:11.616Z,176
2019-01-05T08:13:10.283Z,200
2019-01-05T08:14:09.212Z,224
2019-01-05T08:15:07.755Z,248
2019-01-05T08:16:06.732Z,220
2019-01-05T08:18:51.273Z,208
2019-01-05T08:19:49.820Z,188
2019-01-05T08:20:48.321Z,192
2019-01-05T08:27:57.584Z,196
2019-01-05T08:28:56.298Z,244
2019-01-05T08:29:55.081Z,244
2019-01-05T08:30:53.625Z,244
2019-01-05T08:31:52.177Z,236
2019-01-05T08:32:50.782Z,220
2019-01-05T08:33:49.787Z,212
2019-01-05T08:34:48.664Z,216
2019-01-05T08:35:47.284Z,252
2019-01-05T08:38:27.336Z,356
2019-01-05T08:39:25.871Z,388
2019-01-05T08:40:24.730Z,360
2019-01-05T08:41:23.367Z,332
2019-01-05T08:42:22.067Z,268
2019-01-05T08:43:20.815Z,232
2019-01-05T08:44:19.357Z,220
2019-01-05T08:45:18.617Z,228
2019-01-05T08:46:17.293Z,240
2019-01-05T08:47:15.808Z,272
2019-01-05T08:48:15.022Z,252
2019-01-05T08:49:13.547Z,272
2019-01-05T08:50:12.092Z,296
2019-01-05T08:52:52.225Z,280
2019-01-05T08:53:50.900Z,276
2019-01-05T08:54:49.785Z,244
2019-01-05T08:55:48.318Z,252
2019-01-05T08:56:47.072Z,248
2019-01-05T08:57:45.695Z,244
2019-01-05T08:58:44.407Z,248
2019-01-05T08:59:43.183Z,292
2019-01-05T09:00:41.749Z,364
2019-01-05T09:01:40.320Z,408
2019-01-05T09:02:39.226Z,424
2019-01-05T09:03:37.814Z,420
2019-01-05T09:04:36.544Z,368
2019-01-05T09:05:35.147Z,332
2019-01-05T09:06:33.702Z,328
2019-01-05T09:07:32.332Z,272
2019-01-05T09:08:31.734Z,272
2019-01-05T09:09:30.293Z,276
2019-01-05T09:10:29.193Z,312
2019-01-05T09:11:27.722Z,356
2019-01-05T09:12:26.240Z,344
2019-01-05T09:13:25.193Z,272
2019-01-05T09:14:23.750Z,244
2019-01-05T09:15:22.282Z,252
2019-01-05T09:16:20.972Z,264
2019-01-05T09:17:20.162Z,296
2019-01-05T09:18:18.876Z,292
2019-01-05T09:19:17.440Z,284
2019-01-05T09:20:16.242Z,268
2019-01-05T09:21:14.984Z,272
2019-01-05T09:22:13.534Z,288
2019-01-05T09:23:12.083Z,268
2019-01-05T09:24:10.741Z,236
2019-01-05T09:25:09.400Z,232
2019-01-05T09:26:07.933Z,264
2019-01-05T09:27:06.508Z,264
2019-01-05T09:28:05.058Z,328
2019-01-05T09:29:03.623Z,312
2019-01-05T09:30:02.147Z,292
2019-01-05T09:31:01.113Z,300
2019-01-05T09:31:59.664Z,244
2019-01-05T09:32:58.218Z,208
2019-01-05T09:33:56.965Z,240
2019-01-05T09:34:55.611Z,212
2019-01-05T09:35:54.386Z,248
2019-01-05T09:36:53.187Z,264
2019-01-05T09:37:51.725Z,284
2019-01-05T09:38:50.253Z,296
2019-01-05T09:39:49.048Z,248
2019-01-05T09:40:47.667Z,216
2019-01-05T09:41:46.210Z,236
2019-01-05T09:42:44.782Z,216
2019-01-05T09:43:43.680Z,228
2019-01-05T09:44:42.229Z,224
2019-01-05T09:45:41.138Z,252
2019-01-05T09:46:39.701Z,256
2019-01-05T09:47:38.270Z,272
2019-01-05T09:48:36.849Z,288
2019-01-05T09:49:36.024Z,288
2019-01-05T09:50:34.734Z,308
2019-01-05T09:51:33.386Z,304
2019-01-05T09:52:31.955Z,324
2019-01-05T09:53:30.993Z,324
2019-01-05T09:54:29.590Z,292
2019-01-05T09:55:28.111Z,284
2019-01-05T09:56:27.180Z,268
2019-01-05T09:57:25.735Z,312
2019-01-05T09:58:25.085Z,340
2019-01-05T09:59:23.614Z,324
2019-01-05T10:00:22.159Z,348
2019-01-05T10:01:21.037Z,328
2019-01-05T10:02:19.599Z,304
2019-01-05T10:03:18.191Z,304
2019-01-05T10:04:16.891Z,316
2019-01-05T10:05:15.443Z,336
2019-01-05T10:06:14.034Z,324
2019-01-05T10:07:12.658Z,328
2019-01-05T10:08:11.579Z,332
2019-01-05T10:09:10.143Z,376
2019-01-05T10:10:09.015Z,356
2019-01-05T10:11:07.546Z,356
2019-01-05T10:12:06.092Z,368
2019-01-05T10:13:04.671Z,324
2019-01-05T10:14:03.380Z,332
2019-01-05T10:15:02.217Z,324
2019-01-05T10:16:01.041Z,320
2019-01-05T10:16:59.571Z,316
2019-01-05T10:17:58.198Z,352
2019-01-05T10:18:57.168Z,324
2019-01-05T10:19:55.712Z,312
2019-01-05T10:20:54.261Z,332
2019-01-05T10:21:53.212Z,320
2019-01-05T10:22:51.773Z,304
2019-01-05T10:23:50.322Z,328
2019-01-05T10:24:49.080Z,296
2019-01-05T10:25:47.634Z,300
2019-01-05T10:26:46.348Z,264
2019-01-05T10:27:45.242Z,256
2019-01-05T10:28:43.735Z,264
2019-01-05T10:29:42.274Z,272
2019-01-05T10:30:40.819Z,264
2019-01-05T10:31:39.389Z,300
2019-01-05T10:32:37.914Z,340
2019-01-05T10:33:36.465Z,324
2019-01-05T10:34:35.118Z,308
2019-01-05T10:35:33.629Z,260
2019-01-05T10:36:32.143Z,240
2019-01-05T10:37:31.044Z,248
2019-01-05T10:38:30.020Z,244
2019-01-05T10:39:28.404Z,232
2019-01-05T10:40:26.955Z,252
2019-01-05T10:41:25.512Z,264
2019-01-05T10:42:24.054Z,300
2019-01-05T10:43:22.542Z,292
2019-01-05T10:44:21.139Z,304
2019-01-05T10:45:19.662Z,336
2019-01-05T10:46:19.078Z,312
2019-01-05T10:48:59.251Z,296
2019-01-05T10:49:57.775Z,280
2019-01-05T10:50:56.324Z,280
2019-01-05T10:51:55.189Z,256
2019-01-05T10:52:53.728Z,284
2019-01-05T10:53:52.275Z,284
2019-01-05T10:54:51.158Z,276
2019-01-05T10:55:49.704Z,296
2019-01-05T10:56:48.267Z,288
2019-01-05T10:59:28.970Z,256
2019-01-05T11:00:27.436Z,284
2019-01-05T11:01:26.018Z,292
2019-01-05T11:02:24.671Z,288
2019-01-05T11:03:23.279Z,308
2019-01-05T11:04:21.818Z,324
2019-01-05T11:05:20.926Z,332
2019-01-05T11:06:20.443Z,368
2019-01-05T11:07:19.109Z,364
2019-01-05T11:08:17.669Z,380
2019-01-05T11:09:16.203Z,368
2019-01-05T11:10:14.836Z,352
2019-01-05T11:11:13.510Z,356
2019-01-05T11:12:12.041Z,376
2019-01-05T11:13:11.035Z,384
2019-01-05T11:14:09.728Z,452
2019-01-05T11:15:08.268Z,432
2019-01-05T11:18:08.519Z,512
2019-01-05T11:19:07.202Z,448
2019-01-05T11:21:47.391Z,488
2019-01-05T11:22:45.896Z,420
2019-01-05T11:23:44.435Z,428
2019-01-05T11:24:43.274Z,428
2019-01-05T11:25:41.835Z,376
2019-01-05T11:26:40.429Z,332
2019-01-05T11:27:39.198Z,272
2019-01-05T11:28:37.827Z,256
2019-01-05T11:29:36.312Z,224
2019-01-05T11:38:00.777Z,596
2019-01-05T11:38:59.528Z,636
2019-01-05T11:41:39.662Z,512
2019-01-05T11:42:38.181Z,504
2019-01-05T11:43:36.976Z,500
2019-01-05T11:44:35.531Z,416
2019-01-05T11:45:35.056Z,420
2019-01-05T11:46:33.646Z,428
2019-01-05T11:47:32.947Z,360
2019-01-05T11:48:31.498Z,372
2019-01-05T11:49:30.042Z,420
2019-01-05T11:50:28.612Z,420
2019-01-05T11:51:27.178Z,352
2019-01-05T11:52:25.709Z,356
2019-01-05T11:53:24.368Z,304
2019-01-05T11:54:23.357Z,352
2019-01-05T11:55:21.962Z,432
2019-01-05T11:56:20.632Z,392
2019-01-05T11:57:19.174Z,352
2019-01-05T11:58:17.736Z,360
2019-01-05T11:59:16.325Z,380
2019-01-05T12:00:14.825Z,388
2019-01-05T12:01:13.357Z,448
2019-01-05T12:02:11.898Z,444
2019-01-05T12:03:10.514Z,468
2019-01-05T12:04:09.408Z,468
2019-01-05T12:05:07.990Z,512
2019-01-05T12:06:06.583Z,488
2019-01-05T12:07:05.352Z,452
2019-01-05T12:08:03.881Z,484
2019-01-05T12:09:07.735Z,512
2019-01-05T12:10:01.003Z,464
2019-01-05T12:10:59.527Z,516
2019-01-05T12:11:58.094Z,452
2019-01-05T12:12:56.688Z,400
2019-01-05T12:13:55.521Z,372
2019-01-05T12:14:54.078Z,380
2019-01-05T12:15:52.920Z,412
2019-01-05T12:16:51.528Z,488
2019-01-05T12:17:50.258Z,492
2019-01-05T12:18:48.828Z,556
2019-01-05T12:19:47.628Z,544
2019-01-05T12:20:46.160Z,488
2019-01-05T12:21:44.763Z,388
2019-01-05T12:22:43.402Z,448
2019-01-05T12:58:24.955Z,504
2019-01-05T12:59:23.686Z,528
2019-01-05T13:00:22.237Z,656
2019-01-05T13:01:20.949Z,620
2019-01-05T13:02:19.815Z,660
2019-01-05T13:03:20.376Z,708
2019-01-05T13:04:20.987Z,668
2019-01-05T13:05:19.715Z,584
2019-01-05T13:06:18.253Z,608
2019-01-05T13:07:17.051Z,488
2019-01-05T13:13:45.943Z,348
2019-01-05T13:17:11.040Z,404
2019-01-05T13:18:09.884Z,408
2019-01-05T13:21:19.867Z,432
2019-01-05T13:25:09.359Z,464
2019-01-05T13:27:49.801Z,416
2019-01-05T13:28:48.557Z,336
2019-01-05T13:37:50.796Z,488
2019-01-05T13:38:51.455Z,448
2019-01-05T13:46:17.575Z,500
2019-01-05T13:47:16.094Z,516
2019-01-05T13:48:14.869Z,520
2019-01-05T13:49:13.646Z,664
2019-01-05T13:50:12.210Z,592
2019-01-05T13:51:11.187Z,536
2019-01-05T13:52:09.817Z,388
2019-01-05T13:53:08.434Z,360
2019-01-05T13:55:23.807Z,316
2019-01-05T13:56:22.353Z,272
2019-01-05T13:57:20.867Z,264
2019-01-05T13:58:19.411Z,276
2019-01-05T14:00:54.172Z,236
2019-01-05T14:01:52.968Z,244
2019-01-05T14:02:51.681Z,248
2019-01-05T14:03:50.387Z,252
2019-01-05T14:04:49.175Z,220
2019-01-05T14:05:47.770Z,216
2019-01-05T14:06:46.356Z,200
2019-01-05T14:07:45.017Z,212
2019-01-05T14:08:44.000Z,204
2019-01-05T14:09:42.361Z,168
2019-01-05T14:10:41.246Z,168
2019-01-05T14:11:39.800Z,148
2019-01-05T14:12:38.500Z,148
2019-01-05T14:13:37.152Z,136
2019-01-05T14:14:35.731Z,148
2019-01-05T14:15:34.735Z,144
2019-01-05T14:16:33.483Z,132
2019-01-05T14:20:12.742Z,116
2019-01-05T14:21:11.438Z,128
2019-01-05T14:22:10.063Z,144
2019-01-05T14:23:08.651Z,136
2019-01-05T14:24:07.233Z,112
2019-01-05T14:25:05.778Z,104
2019-01-05T14:26:04.355Z,108
2019-01-05T14:27:03.336Z,116
2019-01-05T14:28:01.852Z,120
2019-01-05T14:29:00.424Z,132
2019-01-05T14:29:59.289Z,120
2019-01-05T14:30:57.822Z,124
2019-01-05T14:31:56.362Z,120
2019-01-05T14:32:54.902Z,116
2019-01-05T14:33:53.678Z,128
2019-01-05T14:34:52.390Z,124
2019-01-05T14:35:51.120Z,108
2019-01-05T14:36:49.716Z,116
2019-01-05T14:37:48.277Z,112
2019-01-05T14:38:46.849Z,128
2019-01-05T14:39:45.426Z,136
2019-01-05T14:40:44.004Z,156
2019-01-05T14:41:42.563Z,152
2019-01-05T14:42:41.456Z,168
2019-01-05T14:43:39.925Z,164
2019-01-05T14:44:38.610Z,164
2019-01-05T14:45:37.474Z,168
2019-01-05T14:46:36.062Z,168
2019-01-05T14:47:34.606Z,176
2019-01-05T14:48:33.239Z,204
2019-01-05T14:49:31.802Z,220
2019-01-05T14:50:31.126Z,212
2019-01-05T14:51:29.650Z,180
2019-01-05T14:52:28.202Z,192
2019-01-05T14:53:26.793Z,176
2019-01-05T14:54:25.490Z,176
2019-01-05T14:55:24.028Z,208
2019-01-05T14:56:22.827Z,200
2019-01-05T14:57:21.670Z,236
2019-01-05T14:58:20.293Z,256
2019-01-05T14:59:19.078Z,244
2019-01-05T15:01:59.652Z,260
2019-01-05T15:02:58.276Z,260
2019-01-05T15:03:56.886Z,248
2019-01-05T15:06:19.917Z,260
2019-01-05T15:07:19.264Z,232
2019-01-05T15:08:17.795Z,208
2019-01-05T15:09:16.372Z,184
2019-01-05T15:10:15.170Z,168
2019-01-05T15:11:13.714Z,140
2019-01-05T15:34:36.181Z,48
2019-01-05T15:37:16.148Z,36
2019-01-05T15:38:15.472Z,36
2019-01-05T15:39:13.990Z,32
2019-01-05T15:41:54.159Z,28
2019-01-05T15:47:14.871Z,16
2019-01-05T15:48:13.519Z,16
2019-01-05T15:50:53.933Z,12
2019-01-05T15:53:34.156Z,8
2019-01-05T15:54:32.840Z,8
2019-01-05T15:57:13.118Z,8
2019-01-05T15:58:12.094Z,4
2019-01-05T16:05:18.438Z,4
2019-01-05T16:08:01.107Z,0
2019-01-05T16:09:00.264Z,0
2019-01-05T16:09:59.078Z,0
2019-01-05T16:10:57.743Z,0
2019-01-05T16:11:56.325Z,0
2019-01-05T16:12:54.916Z,0
2019-01-05T16:13:53.476Z,0
2019-01-05T16:14:51.985Z,0
2019-01-05T16:15:50.509Z,0
2019-01-05T16:16:49.107Z,0
2019-01-05T16:17:47.634Z,0
2019-01-05T16:18:46.229Z,0
2019-01-05T16:19:45.080Z,0
2019-01-05T16:20:43.695Z,0
2019-01-05T16:21:42.330Z,0
2019-01-05T16:22:41.047Z,0
2019-01-05T16:23:39.708Z,0
2019-01-05T16:24:38.258Z,0
2019-01-05T16:25:37.280Z,0
2019-01-05T16:26:35.826Z,0
2019-01-05T16:27:34.543Z,0
2019-01-05T16:28:33.150Z,0
2019-01-05T16:29:31.698Z,0
2019-01-05T16:30:30.318Z,0
2019-01-05T16:31:28.951Z,0
2019-01-05T16:32:27.928Z,0
2019-01-05T16:33:26.729Z,0
2019-01-05T16:34:25.342Z,0
2019-01-05T16:35:23.854Z,0
2019-01-05T16:36:22.395Z,0
2019-01-05T16:37:21.004Z,0
2019-01-05T16:38:19.849Z,0
2019-01-05T16:39:18.400Z,0
2019-01-05T16:40:17.013Z,0
2019-01-05T16:41:15.601Z,0
2019-01-05T16:42:14.153Z,0
2019-01-05T16:43:12.786Z,0
2019-01-05T16:44:11.414Z,0
2019-01-05T16:45:09.962Z,0
2019-01-05T16:46:09.429Z,0
2019-01-05T16:47:07.917Z,0
2019-01-05T16:48:06.564Z,0
2019-01-05T16:49:05.145Z,0